sensor_id;sensor_type;location;lat;lon;timestamp;P1;durP1;ratioP1;P2;durP2;ratioP2
77597;SDS011;66756;42.774;23.354;2023-06-04T00:00:53;3.45;;;2.20;;
77597;SDS011;66756;42.774;23.354;2023-06-04T00:03:19;4.30;;;2.60;;
77597;SDS011;66756;42.774;23.354;2023-06-04T00:05:46;4.47;;;2.83;;
77597;SDS011;66756;42.774;23.354;2023-06-04T00:08:12;3.85;;;2.65;;
77597;SDS011;66756;42.774;23.354;2023-06-04T00:10:38;6.80;;;3.15;;
77597;SDS011;66756;42.774;23.354;2023-06-04T00:13:05;3.70;;;2.88;;
77597;SDS011;66756;42.774;23.354;2023-06-04T00:15:31;6.53;;;3.85;;
77597;SDS011;66756;42.774;23.354;2023-06-04T00:17:57;7.57;;;2.95;;
77597;SDS011;66756;42.774;23.354;2023-06-04T00:20:23;5.78;;;3.17;;
77597;SDS011;66756;42.774;23.354;2023-06-04T00:22:49;5.78;;;3.13;;
77597;SDS011;66756;42.774;23.354;2023-06-04T00:25:15;5.25;;;3.17;;
77597;SDS011;66756;42.774;23.354;2023-06-04T00:27:41;5.78;;;3.60;;
77597;SDS011;66756;42.774;23.354;2023-06-04T00:30:08;5.35;;;2.70;;
77597;SDS011;66756;42.774;23.354;2023-06-04T00:32:34;5.57;;;4.15;;
77597;SDS011;66756;42.774;23.354;2023-06-04T00:35:00;6.85;;;3.67;;
77597;SDS011;66756;42.774;23.354;2023-06-04T00:37:27;5.30;;;2.95;;
77597;SDS011;66756;42.774;23.354;2023-06-04T00:39:53;4.63;;;3.13;;
77597;SDS011;66756;42.774;23.354;2023-06-04T00:42:22;4.15;;;2.88;;
77597;SDS011;66756;42.774;23.354;2023-06-04T00:44:48;5.18;;;3.50;;
77597;SDS011;66756;42.774;23.354;2023-06-04T00:47:15;5.72;;;2.95;;
77597;SDS011;66756;42.774;23.354;2023-06-04T00:49:41;4.65;;;3.75;;
77597;SDS011;66756;42.774;23.354;2023-06-04T00:52:08;4.80;;;3.50;;
77597;SDS011;66756;42.774;23.354;2023-06-04T00:54:34;4.93;;;3.25;;
77597;SDS011;66756;42.774;23.354;2023-06-04T00:57:00;5.72;;;3.13;;
77597;SDS011;66756;42.774;23.354;2023-06-04T00:59:26;4.90;;;3.30;;
77597;SDS011;66756;42.774;23.354;2023-06-04T01:02:03;4.80;;;3.55;;
77597;SDS011;66756;42.774;23.354;2023-06-04T01:04:42;4.90;;;4.13;;
77597;SDS011;66756;42.774;23.354;2023-06-04T01:07:10;5.18;;;2.55;;
77597;SDS011;66756;42.774;23.354;2023-06-04T01:09:38;4.70;;;3.05;;
77597;SDS011;66756;42.774;23.354;2023-06-04T01:12:05;4.30;;;2.85;;
77597;SDS011;66756;42.774;23.354;2023-06-04T01:14:31;5.07;;;3.03;;
77597;SDS011;66756;42.774;23.354;2023-06-04T01:16:59;4.07;;;2.70;;
77597;SDS011;66756;42.774;23.354;2023-06-04T01:22:10;5.35;;;2.35;;
77597;SDS011;66756;42.774;23.354;2023-06-04T01:24:41;5.10;;;2.95;;
77597;SDS011;66756;42.774;23.354;2023-06-04T01:27:08;4.35;;;2.83;;
77597;SDS011;66756;42.774;23.354;2023-06-04T01:29:34;4.80;;;2.83;;
77597;SDS011;66756;42.774;23.354;2023-06-04T01:32:01;4.90;;;2.75;;
77597;SDS011;66756;42.774;23.354;2023-06-04T01:34:27;4.78;;;3.17;;
77597;SDS011;66756;42.774;23.354;2023-06-04T01:36:53;6.03;;;2.30;;
77597;SDS011;66756;42.774;23.354;2023-06-04T01:39:19;4.78;;;2.70;;
77597;SDS011;66756;42.774;23.354;2023-06-04T01:41:45;5.57;;;2.70;;
77597;SDS011;66756;42.774;23.354;2023-06-04T01:44:11;3.72;;;2.25;;
77597;SDS011;66756;42.774;23.354;2023-06-04T01:46:37;3.53;;;2.38;;
77597;SDS011;66756;42.774;23.354;2023-06-04T01:49:03;3.05;;;1.95;;
77597;SDS011;66756;42.774;23.354;2023-06-04T01:51:31;4.53;;;2.00;;
77597;SDS011;66756;42.774;23.354;2023-06-04T01:53:57;4.15;;;2.42;;
77597;SDS011;66756;42.774;23.354;2023-06-04T01:56:23;3.70;;;1.52;;
77597;SDS011;66756;42.774;23.354;2023-06-04T01:58:51;5.00;;;1.40;;
77597;SDS011;66756;42.774;23.354;2023-06-04T02:01:17;3.05;;;1.63;;
77597;SDS011;66756;42.774;23.354;2023-06-04T02:03:44;2.85;;;2.00;;
77597;SDS011;66756;42.774;23.354;2023-06-04T02:06:10;4.00;;;1.40;;
77597;SDS011;66756;42.774;23.354;2023-06-04T02:08:37;5.82;;;1.60;;
77597;SDS011;66756;42.774;23.354;2023-06-04T02:11:03;3.17;;;1.77;;
77597;SDS011;66756;42.774;23.354;2023-06-04T02:13:29;3.88;;;1.95;;
77597;SDS011;66756;42.774;23.354;2023-06-04T02:15:55;3.65;;;1.38;;
77597;SDS011;66756;42.774;23.354;2023-06-04T02:18:21;3.17;;;1.60;;
77597;SDS011;66756;42.774;23.354;2023-06-04T02:20:48;3.10;;;1.60;;
77597;SDS011;66756;42.774;23.354;2023-06-04T02:23:14;3.42;;;1.92;;
77597;SDS011;66756;42.774;23.354;2023-06-04T02:25:41;3.85;;;1.42;;
77597;SDS011;66756;42.774;23.354;2023-06-04T02:28:09;2.53;;;1.33;;
77597;SDS011;66756;42.774;23.354;2023-06-04T02:30:35;5.07;;;2.00;;
77597;SDS011;66756;42.774;23.354;2023-06-04T02:33:02;2.40;;;1.35;;
77597;SDS011;66756;42.774;23.354;2023-06-04T02:35:28;3.03;;;1.50;;
77597;SDS011;66756;42.774;23.354;2023-06-04T02:37:54;5.25;;;1.55;;
77597;SDS011;66756;42.774;23.354;2023-06-04T02:40:26;3.58;;;1.67;;
77597;SDS011;66756;42.774;23.354;2023-06-04T02:42:52;2.72;;;1.42;;
77597;SDS011;66756;42.774;23.354;2023-06-04T02:45:19;3.90;;;1.90;;
77597;SDS011;66756;42.774;23.354;2023-06-04T02:47:45;3.38;;;2.05;;
77597;SDS011;66756;42.774;23.354;2023-06-04T02:50:11;5.90;;;1.75;;
77597;SDS011;66756;42.774;23.354;2023-06-04T02:52:37;5.13;;;2.20;;
77597;SDS011;66756;42.774;23.354;2023-06-04T02:55:05;3.75;;;1.27;;
77597;SDS011;66756;42.774;23.354;2023-06-04T02:57:31;2.95;;;1.58;;
77597;SDS011;66756;42.774;23.354;2023-06-04T02:59:58;3.97;;;2.03;;
77597;SDS011;66756;42.774;23.354;2023-06-04T03:02:24;4.50;;;2.15;;
77597;SDS011;66756;42.774;23.354;2023-06-04T03:04:50;4.60;;;2.30;;
77597;SDS011;66756;42.774;23.354;2023-06-04T03:07:17;4.75;;;2.17;;
77597;SDS011;66756;42.774;23.354;2023-06-04T03:09:48;5.03;;;2.70;;
77597;SDS011;66756;42.774;23.354;2023-06-04T03:12:14;6.65;;;3.72;;
77597;SDS011;66756;42.774;23.354;2023-06-04T03:14:40;7.28;;;2.95;;
77597;SDS011;66756;42.774;23.354;2023-06-04T03:17:06;6.25;;;2.97;;
77597;SDS011;66756;42.774;23.354;2023-06-04T03:19:33;5.20;;;2.58;;
77597;SDS011;66756;42.774;23.354;2023-06-04T03:21:59;5.40;;;2.85;;
77597;SDS011;66756;42.774;23.354;2023-06-04T03:24:25;5.90;;;2.67;;
77597;SDS011;66756;42.774;23.354;2023-06-04T03:26:52;5.93;;;2.47;;
77597;SDS011;66756;42.774;23.354;2023-06-04T03:29:18;5.30;;;2.65;;
77597;SDS011;66756;42.774;23.354;2023-06-04T03:31:44;3.85;;;2.50;;
77597;SDS011;66756;42.774;23.354;2023-06-04T03:34:10;5.22;;;2.40;;
77597;SDS011;66756;42.774;23.354;2023-06-04T03:36:36;3.72;;;2.22;;
77597;SDS011;66756;42.774;23.354;2023-06-04T03:39:03;3.90;;;1.83;;
77597;SDS011;66756;42.774;23.354;2023-06-04T03:41:29;4.00;;;2.25;;
77597;SDS011;66756;42.774;23.354;2023-06-04T03:43:55;3.25;;;2.08;;
77597;SDS011;66756;42.774;23.354;2023-06-04T03:46:21;3.53;;;1.95;;
77597;SDS011;66756;42.774;23.354;2023-06-04T03:48:51;5.32;;;1.95;;
77597;SDS011;66756;42.774;23.354;2023-06-04T03:51:17;5.45;;;2.17;;
77597;SDS011;66756;42.774;23.354;2023-06-04T03:53:43;4.90;;;2.63;;
77597;SDS011;66756;42.774;23.354;2023-06-04T03:56:09;3.33;;;2.30;;
77597;SDS011;66756;42.774;23.354;2023-06-04T03:58:35;4.75;;;2.65;;
77597;SDS011;66756;42.774;23.354;2023-06-04T04:01:01;4.22;;;2.45;;
77597;SDS011;66756;42.774;23.354;2023-06-04T04:03:29;4.63;;;2.13;;
77597;SDS011;66756;42.774;23.354;2023-06-04T04:05:56;5.15;;;2.60;;
77597;SDS011;66756;42.774;23.354;2023-06-04T04:08:22;4.95;;;2.35;;
77597;SDS011;66756;42.774;23.354;2023-06-04T04:10:49;5.32;;;3.28;;
77597;SDS011;66756;42.774;23.354;2023-06-04T04:13:15;4.22;;;3.25;;
77597;SDS011;66756;42.774;23.354;2023-06-04T04:15:41;6.20;;;3.22;;
77597;SDS011;66756;42.774;23.354;2023-06-04T04:18:07;3.92;;;2.47;;
77597;SDS011;66756;42.774;23.354;2023-06-04T04:20:33;4.78;;;2.72;;
77597;SDS011;66756;42.774;23.354;2023-06-04T04:23:00;5.47;;;2.55;;
77597;SDS011;66756;42.774;23.354;2023-06-04T04:25:26;4.03;;;2.67;;
77597;SDS011;66756;42.774;23.354;2023-06-04T04:27:52;3.85;;;2.40;;
77597;SDS011;66756;42.774;23.354;2023-06-04T04:30:21;3.88;;;2.28;;
77597;SDS011;66756;42.774;23.354;2023-06-04T04:32:47;6.00;;;2.70;;
77597;SDS011;66756;42.774;23.354;2023-06-04T04:35:13;3.60;;;1.90;;
77597;SDS011;66756;42.774;23.354;2023-06-04T04:37:43;4.07;;;2.33;;
77597;SDS011;66756;42.774;23.354;2023-06-04T04:40:09;3.25;;;2.33;;
77597;SDS011;66756;42.774;23.354;2023-06-04T04:42:37;5.07;;;2.92;;
77597;SDS011;66756;42.774;23.354;2023-06-04T04:45:03;3.33;;;2.13;;
77597;SDS011;66756;42.774;23.354;2023-06-04T04:47:29;3.35;;;2.00;;
77597;SDS011;66756;42.774;23.354;2023-06-04T04:49:55;4.43;;;2.22;;
77597;SDS011;66756;42.774;23.354;2023-06-04T04:52:21;3.67;;;2.17;;
77597;SDS011;66756;42.774;23.354;2023-06-04T04:54:47;4.35;;;2.60;;
77597;SDS011;66756;42.774;23.354;2023-06-04T04:57:13;4.50;;;3.13;;
77597;SDS011;66756;42.774;23.354;2023-06-04T04:59:39;4.40;;;2.40;;
77597;SDS011;66756;42.774;23.354;2023-06-04T05:02:05;4.47;;;2.80;;
77597;SDS011;66756;42.774;23.354;2023-06-04T05:04:31;4.53;;;2.45;;
77597;SDS011;66756;42.774;23.354;2023-06-04T05:06:57;3.15;;;2.13;;
77597;SDS011;66756;42.774;23.354;2023-06-04T05:09:23;3.58;;;2.35;;
77597;SDS011;66756;42.774;23.354;2023-06-04T05:11:49;4.43;;;2.60;;
77597;SDS011;66756;42.774;23.354;2023-06-04T05:14:16;2.80;;;1.83;;
77597;SDS011;66756;42.774;23.354;2023-06-04T05:16:42;4.50;;;1.90;;
77597;SDS011;66756;42.774;23.354;2023-06-04T05:19:09;4.50;;;2.28;;
77597;SDS011;66756;42.774;23.354;2023-06-04T05:21:36;3.15;;;2.05;;
77597;SDS011;66756;42.774;23.354;2023-06-04T05:24:02;5.40;;;2.47;;
77597;SDS011;66756;42.774;23.354;2023-06-04T05:26:28;3.83;;;2.90;;
77597;SDS011;66756;42.774;23.354;2023-06-04T05:28:54;4.15;;;2.22;;
77597;SDS011;66756;42.774;23.354;2023-06-04T05:31:21;3.70;;;2.22;;
77597;SDS011;66756;42.774;23.354;2023-06-04T05:33:51;4.50;;;2.42;;
77597;SDS011;66756;42.774;23.354;2023-06-04T05:36:17;4.97;;;3.28;;
77597;SDS011;66756;42.774;23.354;2023-06-04T05:38:43;4.75;;;2.50;;
77597;SDS011;66756;42.774;23.354;2023-06-04T05:41:09;3.28;;;1.92;;
77597;SDS011;66756;42.774;23.354;2023-06-04T05:43:37;3.83;;;2.17;;
77597;SDS011;66756;42.774;23.354;2023-06-04T05:46:03;2.80;;;1.90;;
77597;SDS011;66756;42.774;23.354;2023-06-04T05:48:31;4.63;;;2.60;;
77597;SDS011;66756;42.774;23.354;2023-06-04T05:50:57;4.70;;;2.40;;
77597;SDS011;66756;42.774;23.354;2023-06-04T05:53:23;4.75;;;2.47;;
77597;SDS011;66756;42.774;23.354;2023-06-04T05:55:49;4.28;;;2.72;;
77597;SDS011;66756;42.774;23.354;2023-06-04T05:58:15;3.45;;;2.33;;
77597;SDS011;66756;42.774;23.354;2023-06-04T06:00:41;4.50;;;2.40;;
77597;SDS011;66756;42.774;23.354;2023-06-04T06:03:07;5.13;;;3.42;;
77597;SDS011;66756;42.774;23.354;2023-06-04T06:05:35;4.15;;;2.70;;
77597;SDS011;66756;42.774;23.354;2023-06-04T06:08:01;3.85;;;2.75;;
77597;SDS011;66756;42.774;23.354;2023-06-04T06:10:27;5.63;;;4.20;;
77597;SDS011;66756;42.774;23.354;2023-06-04T06:12:53;4.25;;;3.00;;
77597;SDS011;66756;42.774;23.354;2023-06-04T06:15:19;6.82;;;2.75;;
77597;SDS011;66756;42.774;23.354;2023-06-04T06:17:45;6.55;;;3.15;;
77597;SDS011;66756;42.774;23.354;2023-06-04T06:20:11;5.00;;;2.53;;
77597;SDS011;66756;42.774;23.354;2023-06-04T06:22:42;6.50;;;2.80;;
77597;SDS011;66756;42.774;23.354;2023-06-04T06:25:08;5.40;;;2.72;;
77597;SDS011;66756;42.774;23.354;2023-06-04T06:27:34;5.07;;;3.03;;
77597;SDS011;66756;42.774;23.354;2023-06-04T06:30:00;4.55;;;2.97;;
77597;SDS011;66756;42.774;23.354;2023-06-04T06:32:26;5.63;;;3.30;;
77597;SDS011;66756;42.774;23.354;2023-06-04T06:34:52;4.93;;;3.53;;
77597;SDS011;66756;42.774;23.354;2023-06-04T06:37:18;4.80;;;2.97;;
77597;SDS011;66756;42.774;23.354;2023-06-04T06:39:44;5.93;;;3.00;;
77597;SDS011;66756;42.774;23.354;2023-06-04T06:42:10;4.10;;;3.00;;
77597;SDS011;66756;42.774;23.354;2023-06-04T06:44:36;5.55;;;3.10;;
77597;SDS011;66756;42.774;23.354;2023-06-04T06:47:02;4.55;;;3.65;;
77597;SDS011;66756;42.774;23.354;2023-06-04T06:49:28;4.53;;;2.80;;
77597;SDS011;66756;42.774;23.354;2023-06-04T06:51:55;5.03;;;3.13;;
77597;SDS011;66756;42.774;23.354;2023-06-04T06:54:21;5.95;;;4.63;;
77597;SDS011;66756;42.774;23.354;2023-06-04T06:56:49;5.18;;;3.08;;
77597;SDS011;66756;42.774;23.354;2023-06-04T06:59:16;4.85;;;3.40;;
77597;SDS011;66756;42.774;23.354;2023-06-04T07:01:42;4.22;;;3.15;;
77597;SDS011;66756;42.774;23.354;2023-06-04T07:04:08;6.13;;;3.00;;
77597;SDS011;66756;42.774;23.354;2023-06-04T07:06:34;5.82;;;3.17;;
77597;SDS011;66756;42.774;23.354;2023-06-04T07:09:01;3.88;;;3.15;;
77597;SDS011;66756;42.774;23.354;2023-06-04T07:11:28;4.97;;;3.75;;
77597;SDS011;66756;42.774;23.354;2023-06-04T07:13:54;4.18;;;3.08;;
77597;SDS011;66756;42.774;23.354;2023-06-04T07:16:20;4.78;;;4.28;;
77597;SDS011;66756;42.774;23.354;2023-06-04T07:18:50;3.97;;;2.85;;
77597;SDS011;66756;42.774;23.354;2023-06-04T07:24:19;4.43;;;3.10;;
77597;SDS011;66756;42.774;23.354;2023-06-04T07:26:45;3.40;;;2.80;;
77597;SDS011;66756;42.774;23.354;2023-06-04T07:29:11;4.18;;;3.22;;
77597;SDS011;66756;42.774;23.354;2023-06-04T07:31:37;5.05;;;3.10;;
77597;SDS011;66756;42.774;23.354;2023-06-04T07:34:03;4.43;;;2.80;;
77597;SDS011;66756;42.774;23.354;2023-06-04T07:36:29;4.00;;;3.05;;
77597;SDS011;66756;42.774;23.354;2023-06-04T07:53:15;5.55;;;4.57;;
77597;SDS011;66756;42.774;23.354;2023-06-04T07:55:41;6.13;;;3.95;;
77597;SDS011;66756;42.774;23.354;2023-06-04T07:58:07;5.43;;;3.85;;
77597;SDS011;66756;42.774;23.354;2023-06-04T08:00:33;5.53;;;4.45;;
77597;SDS011;66756;42.774;23.354;2023-06-04T08:02:59;4.80;;;4.40;;
77597;SDS011;66756;42.774;23.354;2023-06-04T08:05:25;5.53;;;5.03;;
77597;SDS011;66756;42.774;23.354;2023-06-04T08:07:51;5.53;;;5.03;;
77597;SDS011;66756;42.774;23.354;2023-06-04T08:10:18;4.35;;;3.95;;
77597;SDS011;66756;42.774;23.354;2023-06-04T08:12:44;4.95;;;4.47;;
77597;SDS011;66756;42.774;23.354;2023-06-04T08:15:10;4.95;;;4.45;;
77597;SDS011;66756;42.774;23.354;2023-06-04T08:17:36;4.97;;;4.47;;
77597;SDS011;66756;42.774;23.354;2023-06-04T08:20:03;6.38;;;4.95;;
77597;SDS011;66756;42.774;23.354;2023-06-04T08:22:31;6.50;;;5.88;;
77597;SDS011;66756;42.774;23.354;2023-06-04T08:24:57;4.60;;;4.05;;
77597;SDS011;66756;42.774;23.354;2023-06-04T08:27:23;5.05;;;4.55;;
77597;SDS011;66756;42.774;23.354;2023-06-04T08:29:49;5.43;;;4.88;;
77597;SDS011;66756;42.774;23.354;2023-06-04T08:32:17;6.13;;;5.43;;
77597;SDS011;66756;42.774;23.354;2023-06-04T08:34:43;5.22;;;4.82;;
77597;SDS011;66756;42.774;23.354;2023-06-04T08:37:09;5.25;;;4.75;;
77597;SDS011;66756;42.774;23.354;2023-06-04T08:39:35;5.03;;;4.57;;
77597;SDS011;66756;42.774;23.354;2023-06-04T08:42:03;5.22;;;4.82;;
77597;SDS011;66756;42.774;23.354;2023-06-04T08:44:30;4.65;;;4.22;;
77597;SDS011;66756;42.774;23.354;2023-06-04T08:46:58;5.60;;;4.32;;
77597;SDS011;66756;42.774;23.354;2023-06-04T08:49:27;5.20;;;4.55;;
77597;SDS011;66756;42.774;23.354;2023-06-04T08:51:55;5.63;;;4.43;;
77597;SDS011;66756;42.774;23.354;2023-06-04T08:54:21;5.32;;;4.65;;
77597;SDS011;66756;42.774;23.354;2023-06-04T08:56:47;5.38;;;4.82;;
77597;SDS011;66756;42.774;23.354;2023-06-04T08:59:14;5.78;;;5.20;;
77597;SDS011;66756;42.774;23.354;2023-06-04T09:01:41;4.78;;;4.38;;
77597;SDS011;66756;42.774;23.354;2023-06-04T09:04:10;6.00;;;5.32;;
77597;SDS011;66756;42.774;23.354;2023-06-04T09:06:38;5.40;;;4.22;;
77597;SDS011;66756;42.774;23.354;2023-06-04T09:09:08;6.50;;;5.03;;
77597;SDS011;66756;42.774;23.354;2023-06-04T09:11:54;5.57;;;4.97;;
77597;SDS011;66756;42.774;23.354;2023-06-04T09:14:22;5.43;;;4.88;;
77597;SDS011;66756;42.774;23.354;2023-06-04T09:16:51;6.05;;;5.35;;
77597;SDS011;66756;42.774;23.354;2023-06-04T09:19:18;4.90;;;4.40;;
77597;SDS011;66756;42.774;23.354;2023-06-04T09:21:48;6.70;;;4.90;;
77597;SDS011;66756;42.774;23.354;2023-06-04T09:24:15;6.78;;;4.88;;
77597;SDS011;66756;42.774;23.354;2023-06-04T09:26:41;5.63;;;4.88;;
77597;SDS011;66756;42.774;23.354;2023-06-04T09:29:07;7.90;;;6.15;;
77597;SDS011;66756;42.774;23.354;2023-06-04T09:31:33;6.25;;;5.15;;
77597;SDS011;66756;42.774;23.354;2023-06-04T09:34:05;5.57;;;5.03;;
77597;SDS011;66756;42.774;23.354;2023-06-04T09:36:32;6.32;;;3.20;;
77597;SDS011;66756;42.774;23.354;2023-06-04T09:38:58;7.70;;;5.70;;
77597;SDS011;66756;42.774;23.354;2023-06-04T09:41:24;6.88;;;5.18;;
77597;SDS011;66756;42.774;23.354;2023-06-04T09:43:58;7.53;;;4.97;;
77597;SDS011;66756;42.774;23.354;2023-06-04T09:46:25;6.80;;;5.95;;
77597;SDS011;66756;42.774;23.354;2023-06-04T09:48:59;6.65;;;5.93;;
77597;SDS011;66756;42.774;23.354;2023-06-04T09:51:25;6.30;;;5.70;;
77597;SDS011;66756;42.774;23.354;2023-06-04T09:53:55;6.40;;;5.28;;
77597;SDS011;66756;42.774;23.354;2023-06-04T09:56:21;6.93;;;6.32;;
77597;SDS011;66756;42.774;23.354;2023-06-04T09:58:48;5.85;;;5.25;;
77597;SDS011;66756;42.774;23.354;2023-06-04T10:01:15;6.43;;;5.82;;
77597;SDS011;66756;42.774;23.354;2023-06-04T10:03:42;9.32;;;4.32;;
77597;SDS011;66756;42.774;23.354;2023-06-04T10:06:10;7.45;;;6.05;;
77597;SDS011;66756;42.774;23.354;2023-06-04T10:08:38;5.75;;;4.40;;
77597;SDS011;66756;42.774;23.354;2023-06-04T10:11:06;7.40;;;5.75;;
77597;SDS011;66756;42.774;23.354;2023-06-04T10:13:55;6.90;;;5.70;;
77597;SDS011;66756;42.774;23.354;2023-06-04T10:16:20;6.38;;;4.10;;
77597;SDS011;66756;42.774;23.354;2023-06-04T10:18:46;6.75;;;6.05;;
77597;SDS011;66756;42.774;23.354;2023-06-04T10:21:13;6.90;;;6.30;;
77597;SDS011;66756;42.774;23.354;2023-06-04T10:23:40;6.72;;;6.03;;
77597;SDS011;66756;42.774;23.354;2023-06-04T10:26:06;7.15;;;3.72;;
77597;SDS011;66756;42.774;23.354;2023-06-04T10:28:33;8.35;;;6.47;;
77597;SDS011;66756;42.774;23.354;2023-06-04T10:31:00;6.20;;;5.60;;
77597;SDS011;66756;42.774;23.354;2023-06-04T10:33:26;7.30;;;5.55;;
77597;SDS011;66756;42.774;23.354;2023-06-04T10:35:53;6.50;;;5.90;;
77597;SDS011;66756;42.774;23.354;2023-06-04T10:38:21;7.40;;;5.90;;
77597;SDS011;66756;42.774;23.354;2023-06-04T10:40:47;5.60;;;5.13;;
77597;SDS011;66756;42.774;23.354;2023-06-04T10:43:14;7.25;;;6.22;;
77597;SDS011;66756;42.774;23.354;2023-06-04T10:45:44;6.57;;;5.15;;
77597;SDS011;66756;42.774;23.354;2023-06-04T10:48:11;5.53;;;5.03;;
77597;SDS011;66756;42.774;23.354;2023-06-04T10:50:48;9.10;;;6.93;;
77597;SDS011;66756;42.774;23.354;2023-06-04T10:53:14;8.80;;;6.18;;
77597;SDS011;66756;42.774;23.354;2023-06-04T10:55:44;7.00;;;5.28;;
77597;SDS011;66756;42.774;23.354;2023-06-04T10:58:10;6.35;;;5.40;;
77597;SDS011;66756;42.774;23.354;2023-06-04T11:00:40;7.03;;;5.88;;
77597;SDS011;66756;42.774;23.354;2023-06-04T11:03:07;9.38;;;6.57;;
77597;SDS011;66756;42.774;23.354;2023-06-04T11:05:34;6.47;;;5.88;;
77597;SDS011;66756;42.774;23.354;2023-06-04T11:08:00;6.82;;;6.22;;
77597;SDS011;66756;42.774;23.354;2023-06-04T11:10:40;6.03;;;5.20;;
77597;SDS011;66756;42.774;23.354;2023-06-04T11:13:06;8.57;;;6.88;;
77597;SDS011;66756;42.774;23.354;2023-06-04T11:15:45;7.93;;;7.10;;
77597;SDS011;66756;42.774;23.354;2023-06-04T11:18:22;8.05;;;7.35;;
77597;SDS011;66756;42.774;23.354;2023-06-04T11:20:50;8.50;;;7.57;;
77597;SDS011;66756;42.774;23.354;2023-06-04T11:23:17;7.95;;;7.25;;
77597;SDS011;66756;42.774;23.354;2023-06-04T11:25:43;7.88;;;7.18;;
77597;SDS011;66756;42.774;23.354;2023-06-04T11:28:16;7.88;;;6.25;;
77597;SDS011;66756;42.774;23.354;2023-06-04T11:30:58;8.50;;;7.80;;
77597;SDS011;66756;42.774;23.354;2023-06-04T11:33:24;9.88;;;7.75;;
77597;SDS011;66756;42.774;23.354;2023-06-04T11:35:50;8.25;;;7.45;;
77597;SDS011;66756;42.774;23.354;2023-06-04T11:38:16;7.22;;;6.60;;
77597;SDS011;66756;42.774;23.354;2023-06-04T11:40:42;8.02;;;7.22;;
77597;SDS011;66756;42.774;23.354;2023-06-04T11:43:10;7.78;;;6.97;;
77597;SDS011;66756;42.774;23.354;2023-06-04T11:45:36;8.02;;;7.22;;
77597;SDS011;66756;42.774;23.354;2023-06-04T11:48:03;8.27;;;7.45;;
77597;SDS011;66756;42.774;23.354;2023-06-04T11:50:29;9.13;;;6.53;;
77597;SDS011;66756;42.774;23.354;2023-06-04T11:52:55;9.00;;;7.13;;
77597;SDS011;66756;42.774;23.354;2023-06-04T11:55:21;8.30;;;5.53;;
77597;SDS011;66756;42.774;23.354;2023-06-04T11:57:48;7.53;;;6.38;;
77597;SDS011;66756;42.774;23.354;2023-06-04T12:00:15;7.43;;;6.72;;
77597;SDS011;66756;42.774;23.354;2023-06-04T12:02:49;8.93;;;6.45;;
77597;SDS011;66756;42.774;23.354;2023-06-04T12:05:17;8.30;;;7.60;;
77597;SDS011;66756;42.774;23.354;2023-06-04T12:07:48;6.85;;;6.22;;
77597;SDS011;66756;42.774;23.354;2023-06-04T12:10:19;7.43;;;6.38;;
77597;SDS011;66756;42.774;23.354;2023-06-04T12:12:46;6.72;;;6.13;;
77597;SDS011;66756;42.774;23.354;2023-06-04T12:15:12;8.90;;;6.38;;
77597;SDS011;66756;42.774;23.354;2023-06-04T12:17:48;6.85;;;6.03;;
77597;SDS011;66756;42.774;23.354;2023-06-04T12:20:15;8.15;;;6.20;;
77597;SDS011;66756;42.774;23.354;2023-06-04T12:22:47;7.25;;;5.95;;
77597;SDS011;66756;42.774;23.354;2023-06-04T12:25:23;8.80;;;7.18;;
77597;SDS011;66756;42.774;23.354;2023-06-04T12:27:51;6.43;;;5.82;;
77597;SDS011;66756;42.774;23.354;2023-06-04T12:30:17;6.65;;;6.05;;
77597;SDS011;66756;42.774;23.354;2023-06-04T12:32:43;7.70;;;7.00;;
77597;SDS011;66756;42.774;23.354;2023-06-04T12:35:10;6.78;;;6.18;;
77597;SDS011;66756;42.774;23.354;2023-06-04T12:37:36;7.75;;;6.93;;
77597;SDS011;66756;42.774;23.354;2023-06-04T12:40:02;7.53;;;6.82;;
77597;SDS011;66756;42.774;23.354;2023-06-04T12:42:31;5.82;;;5.18;;
77597;SDS011;66756;42.774;23.354;2023-06-04T12:44:57;8.27;;;7.25;;
77597;SDS011;66756;42.774;23.354;2023-06-04T12:47:23;7.70;;;7.00;;
77597;SDS011;66756;42.774;23.354;2023-06-04T12:49:50;8.25;;;7.45;;
77597;SDS011;66756;42.774;23.354;2023-06-04T12:52:17;8.43;;;7.18;;
77597;SDS011;66756;42.774;23.354;2023-06-04T12:54:43;7.82;;;7.07;;
77597;SDS011;66756;42.774;23.354;2023-06-04T12:57:09;8.07;;;6.75;;
77597;SDS011;66756;42.774;23.354;2023-06-04T12:59:35;7.80;;;6.78;;
77597;SDS011;66756;42.774;23.354;2023-06-04T13:02:01;9.15;;;8.43;;
77597;SDS011;66756;42.774;23.354;2023-06-04T13:04:27;8.90;;;8.10;;
77597;SDS011;66756;42.774;23.354;2023-06-04T13:06:53;7.03;;;5.57;;
77597;SDS011;66756;42.774;23.354;2023-06-04T13:09:24;8.82;;;8.05;;
77597;SDS011;66756;42.774;23.354;2023-06-04T13:11:50;8.50;;;7.70;;
77597;SDS011;66756;42.774;23.354;2023-06-04T13:14:16;8.55;;;7.75;;
77597;SDS011;66756;42.774;23.354;2023-06-04T13:16:42;12.32;;;8.85;;
77597;SDS011;66756;42.774;23.354;2023-06-04T13:19:10;11.48;;;9.07;;
77597;SDS011;66756;42.774;23.354;2023-06-04T13:21:36;9.73;;;8.57;;
77597;SDS011;66756;42.774;23.354;2023-06-04T13:24:02;9.13;;;8.32;;
77597;SDS011;66756;42.774;23.354;2023-06-04T13:26:28;12.85;;;8.15;;
77597;SDS011;66756;42.774;23.354;2023-06-04T13:28:54;8.43;;;7.65;;
77597;SDS011;66756;42.774;23.354;2023-06-04T13:31:20;8.70;;;8.00;;
77597;SDS011;66756;42.774;23.354;2023-06-04T13:33:46;8.27;;;7.45;;
77597;SDS011;66756;42.774;23.354;2023-06-04T13:36:13;7.43;;;5.70;;
77597;SDS011;66756;42.774;23.354;2023-06-04T13:38:39;7.32;;;6.72;;
77597;SDS011;66756;42.774;23.354;2023-06-04T13:41:07;7.78;;;5.85;;
77597;SDS011;66756;42.774;23.354;2023-06-04T13:43:33;10.60;;;8.27;;
77597;SDS011;66756;42.774;23.354;2023-06-04T13:45:59;7.60;;;7.00;;
77597;SDS011;66756;42.774;23.354;2023-06-04T13:48:25;7.93;;;7.22;;
77597;SDS011;66756;42.774;23.354;2023-06-04T13:50:51;7.30;;;6.43;;
77597;SDS011;66756;42.774;23.354;2023-06-04T13:53:17;7.07;;;6.38;;
77597;SDS011;66756;42.774;23.354;2023-06-04T13:55:44;7.60;;;6.82;;
77597;SDS011;66756;42.774;23.354;2023-06-04T13:58:11;8.00;;;7.30;;
77597;SDS011;66756;42.774;23.354;2023-06-04T14:00:37;8.90;;;8.10;;
77597;SDS011;66756;42.774;23.354;2023-06-04T14:03:03;8.88;;;7.50;;
77597;SDS011;66756;42.774;23.354;2023-06-04T14:05:29;7.95;;;7.18;;
77597;SDS011;66756;42.774;23.354;2023-06-04T14:07:55;6.93;;;6.18;;
77597;SDS011;66756;42.774;23.354;2023-06-04T14:10:21;7.65;;;6.95;;
77597;SDS011;66756;42.774;23.354;2023-06-04T14:12:47;8.82;;;6.93;;
77597;SDS011;66756;42.774;23.354;2023-06-04T14:15:13;7.65;;;6.93;;
77597;SDS011;66756;42.774;23.354;2023-06-04T14:17:40;6.72;;;6.13;;
77597;SDS011;66756;42.774;23.354;2023-06-04T14:20:06;6.45;;;5.85;;
77597;SDS011;66756;42.774;23.354;2023-06-04T14:22:36;9.52;;;7.93;;
77597;SDS011;66756;42.774;23.354;2023-06-04T14:25:03;10.43;;;6.80;;
77597;SDS011;66756;42.774;23.354;2023-06-04T14:27:29;8.80;;;4.40;;
77597;SDS011;66756;42.774;23.354;2023-06-04T14:29:55;10.70;;;7.15;;
77597;SDS011;66756;42.774;23.354;2023-06-04T14:32:22;9.88;;;7.03;;
77597;SDS011;66756;42.774;23.354;2023-06-04T14:34:48;7.30;;;6.38;;
77597;SDS011;66756;42.774;23.354;2023-06-04T14:37:14;7.90;;;6.32;;
77597;SDS011;66756;42.774;23.354;2023-06-04T14:39:40;8.45;;;7.75;;
77597;SDS011;66756;42.774;23.354;2023-06-04T14:42:06;6.70;;;4.75;;
77597;SDS011;66756;42.774;23.354;2023-06-04T14:44:32;6.38;;;5.78;;
77597;SDS011;66756;42.774;23.354;2023-06-04T14:46:58;5.82;;;4.65;;
77597;SDS011;66756;42.774;23.354;2023-06-04T14:49:24;6.95;;;6.18;;
77597;SDS011;66756;42.774;23.354;2023-06-04T14:51:50;4.22;;;3.22;;